Flight Track Log - Related Links

Times and Time Zones

All times are in EDT time to prevent confusion due to time zone crossing. See the CSN6766 flight status page for this flight to view local times or setup timezone preferences in your user account.

Time Position Orientation Groundspeed Altitude Reporting Facility
EDT Latitude Longitude Course Direction KTS MPH feet Rate Location/Type
Mon 11:14:00 AM 31.0527 121.6873 225° Southwest  Level Estimated
Mon 11:15:00 AM 30.9625 121.5825 225° Southwest  Level Estimated
Mon 11:16:00 AM 30.8722 121.4778 225° Southwest  Level Estimated
Mon 11:17:00 AM 30.7819 121.3734 225° Southwest  Level Estimated
Mon 11:18:00 AM 30.6914 121.2691 225° Southwest  Level Estimated
Mon 11:19:00 AM 30.6009 121.1650 225° Southwest  Level Estimated
Mon 11:20:00 AM 30.5103 121.0612 225° Southwest  Level Estimated
Mon 11:21:00 AM 30.4196 120.9575 225° Southwest  Level Estimated
Mon 11:22:00 AM 30.3288 120.8540 225° Southwest  Level Estimated
Mon 11:23:00 AM 30.2379 120.7507 224° Southwest  Level Estimated
Mon 11:24:00 AM 30.1470 120.6476 224° Southwest  Level Estimated
Mon 11:25:00 AM 30.0560 120.5447 224° Southwest  Level Estimated
Mon 11:26:00 AM 29.9649 120.4420 224° Southwest  Level Estimated
Mon 11:27:00 AM 29.8737 120.3394 224° Southwest  Level Estimated
Mon 11:28:00 AM 29.7824 120.2371 224° Southwest  Level Estimated
Mon 11:29:00 AM 29.6911 120.1349 224° Southwest  Level Estimated
Mon 11:30:00 AM 29.5997 120.0330 224° Southwest  Level Estimated
Mon 11:31:00 AM 29.5082 119.9312 224° Southwest  Level Estimated
Mon 11:32:00 AM 29.4166 119.8296 224° Southwest  Level Estimated
Mon 11:33:00 AM 29.3249 119.7281 224° Southwest  Level Estimated
Mon 11:34:00 AM 29.2332 119.6269 224° Southwest  Level Estimated
Mon 11:35:00 AM 29.1414 119.5258 224° Southwest  Level Estimated
Mon 11:36:00 AM 29.0495 119.4249 224° Southwest  Level Estimated
Mon 11:37:00 AM 28.9576 119.3242 224° Southwest  Level Estimated
Mon 11:38:00 AM 28.8656 119.2237 224° Southwest  Level Estimated
Mon 11:39:00 AM 28.7735 119.1234 224° Southwest  Level Estimated
Mon 11:40:00 AM 28.6813 119.0232 224° Southwest  Level Estimated
Mon 11:41:00 AM 28.5891 118.9232 224° Southwest  Level Estimated
Mon 11:42:00 AM 28.4967 118.8234 224° Southwest  Level Estimated
Mon 11:43:00 AM 28.4043 118.7238 224° Southwest  Level Estimated
Mon 11:44:00 AM 28.3119 118.6243 223° Southwest  Level Estimated
Mon 11:45:00 AM 28.2193 118.5250 223° Southwest  Level Estimated
Mon 11:46:00 AM 28.1267 118.4259 223° Southwest  Level Estimated
Mon 11:47:00 AM 28.0340 118.3270 223° Southwest  Level Estimated
Mon 11:48:00 AM 27.9413 118.2282 223° Southwest  Level Estimated
Mon 11:49:00 AM 27.8485 118.1296 223° Southwest  Level Estimated
Mon 11:50:00 AM 27.7556 118.0311 223° Southwest  Level Estimated
Mon 11:51:00 AM 27.6626 117.9329 223° Southwest  Level Estimated
Mon 11:52:00 AM 27.5696 117.8347 223° Southwest  Level Estimated
Mon 11:53:00 AM 27.4765 117.7368 223° Southwest  Level Estimated
Mon 11:54:00 AM 27.3833 117.6390 223° Southwest  Level Estimated
Mon 11:55:00 AM 27.2901 117.5414 223° Southwest  Level Estimated
Mon 11:56:00 AM 27.1968 117.4440 223° Southwest  Level Estimated
Mon 11:57:00 AM 27.1034 117.3467 223° Southwest  Level Estimated
Mon 11:58:00 AM 27.0100 117.2496 223° Southwest  Level Estimated
Mon 11:59:00 AM 26.9165 117.1526 223° Southwest  Level Estimated
Mon 12:00:00 PM 26.8229 117.0558 223° Southwest  Level Estimated
Mon 12:01:00 PM 26.7293 116.9592 223° Southwest  Level Estimated
Mon 12:02:00 PM 26.6356 116.8627 223° Southwest  Level Estimated
Mon 12:03:00 PM 26.5418 116.7664 223° Southwest  Level Estimated
Mon 12:04:00 PM 26.4480 116.6702 223° Southwest  Level Estimated
Mon 12:05:00 PM 26.3541 116.5742 223° Southwest  Level Estimated
Mon 12:06:00 PM 26.2601 116.4783 222° Southwest  Level Estimated
Mon 12:07:00 PM 26.1661 116.3826 222° Southwest  Level Estimated
Mon 12:08:00 PM 26.0720 116.2871 222° Southwest  Level Estimated
Mon 12:09:00 PM 25.9778 116.1917 222° Southwest  Level Estimated
Mon 12:10:00 PM 25.8836 116.0965 222° Southwest  Level Estimated
Mon 12:11:00 PM 25.7894 116.0014 222° Southwest  Level Estimated
Mon 12:12:00 PM 25.6950 115.9064 222° Southwest  Level Estimated
Mon 12:13:00 PM 25.6006 115.8117 222° Southwest  Level Estimated
Mon 12:14:00 PM 25.5062 115.7170 222° Southwest  Level Estimated
Mon 12:15:00 PM 25.4116 115.6225 222° Southwest  Level Estimated
Mon 12:16:00 PM 25.3171 115.5282 222° Southwest  Level Estimated
Mon 12:17:00 PM 25.2224 115.4340 222° Southwest  Level Estimated
Mon 12:18:00 PM 25.1277 115.3400 222° Southwest  Level Estimated
Mon 12:19:00 PM 25.0330 115.2461 222° Southwest  Level Estimated
Mon 12:20:00 PM 24.9381 115.1523 222° Southwest  Level Estimated
Mon 12:21:00 PM 24.8433 115.0587 222° Southwest  Level Estimated
Mon 12:22:00 PM 24.7483 114.9652 222° Southwest  Level Estimated
Mon 12:23:00 PM 24.6534 114.8719 222° Southwest  Level Estimated
Mon 12:24:00 PM 24.5583 114.7787 222° Southwest  Level Estimated
Mon 12:25:00 PM 24.4632 114.6857 222° Southwest  Level Estimated
Mon 12:26:00 PM 24.3680 114.5928 222° Southwest  Level Estimated
Mon 12:27:00 PM 24.2728 114.5000 222° Southwest  Level Estimated
Mon 12:28:00 PM 24.1775 114.4074 222° Southwest  Level Estimated
Mon 12:29:00 PM 24.0822 114.3149 222° Southwest  Level Estimated
Mon 12:30:00 PM 23.9868 114.2226 222° Southwest  Level Estimated
Mon 12:31:00 PM 23.8914 114.1304 221° Southwest  Level Estimated
Mon 12:32:00 PM 23.7959 114.0383 221° Southwest  Level Estimated
Mon 12:33:00 PM 23.7003 113.9464 221° Southwest  Level Estimated
Mon 12:34:00 PM 23.6047 113.8546 221° Southwest  Level Estimated
Mon 12:35:00 PM 23.5091 113.7629 221° Southwest  Level Estimated
Mon 12:36:00 PM 23.4133 113.6714 221° Southwest  Level Estimated
Mon 12:37:00 PM 23.3176 113.5800 221° Southwest  Level Estimated
Mon 12:38:00 PM 23.2218 113.4887 221° Southwest  Level Estimated
Mon 12:39:00 PM 23.1259 113.3976 221° Southwest  Level Estimated
Mon 12:40:00 PM 23.0300 113.3065 221° Southwest  Level Estimated
Mon 12:41:00 PM 22.9340 113.2157 221° Southwest  Level Estimated
Mon 12:42:00 PM 22.8379 113.1249 221° Southwest  Level Estimated
Mon 12:43:00 PM 22.7419 113.0343 221° Southwest  Level Estimated
Mon 12:44:00 PM 22.6457 112.9438 221° Southwest  Level Estimated
Mon 12:45:00 PM 22.5496 112.8534 221° Southwest  Level Estimated
Mon 12:46:00 PM 22.4533 112.7632 221° Southwest  Level Estimated
Mon 12:47:00 PM 22.3570 112.6731 221° Southwest  Level Estimated
Mon 12:48:00 PM 22.2607 112.5831 221° Southwest  Level Estimated
Mon 12:49:00 PM 22.1643 112.4932 221° Southwest  Level Estimated
Mon 12:50:00 PM 22.0679 112.4035 221° Southwest  Level Estimated
Mon 12:51:00 PM 21.9714 112.3138 221° Southwest  Level Estimated
Mon 12:52:00 PM 21.8749 112.2243 221° Southwest  Level Estimated
Mon 12:53:00 PM 21.7783 112.1349 221° Southwest  Level Estimated
Mon 12:54:00 PM 21.6817 112.0457 221° Southwest  Level Estimated
Mon 12:55:00 PM 21.5850 111.9566 221° Southwest  Level Estimated
Mon 12:56:00 PM 21.4883 111.8675 221° Southwest  Level Estimated
Mon 12:57:00 PM 21.3916 111.7786 221° Southwest  Level Estimated
Mon 12:58:00 PM 21.2948 111.6898 221° Southwest  Level Estimated
Mon 12:59:00 PM 21.1979 111.6012 220° Southwest  Level Estimated
Mon 01:00:00 PM 21.1010 111.5126 220° Southwest  Level Estimated
Mon 01:01:00 PM 21.0040 111.4242 220° Southwest  Level Estimated
Mon 01:02:00 PM 20.9070 111.3358 220° Southwest  Level Estimated
Mon 01:03:00 PM 20.8100 111.2476 220° Southwest  Level Estimated
Mon 01:04:00 PM 20.7129 111.1595 220° Southwest  Level Estimated
Mon 01:05:00 PM 20.6158 111.0715 220° Southwest  Level Estimated
Mon 01:06:00 PM 20.5186 110.9837 220° Southwest  Level Estimated
Mon 01:07:00 PM 20.4214 110.8959 220° Southwest  Level Estimated
Mon 01:08:00 PM 20.3241 110.8083 220° Southwest  Level Estimated
Mon 01:09:00 PM 20.2268 110.7207 220° Southwest  Level Estimated
Mon 01:10:00 PM 20.1295 110.6333 220° Southwest  Level Estimated
Mon 01:11:00 PM 20.0321 110.5460 220° Southwest  Level Estimated
Mon 01:12:00 PM 19.9349 110.4590 220° Southwest  Level Estimated
Mon 01:13:00 PM 19.9349 110.4590 167° South  Level Estimated
Mon 01:14:00 PM 19.9349 110.4590 167° South  Level Estimated
Mon 01:15:00 PM 19.9349 110.4590 167° South  Level Estimated
Mon 01:16:00 PM 19.9349 110.4590 167° South  Level Estimated
Mon 01:17:00 PM 19.9349 110.4590 167° South  Level Estimated
Mon 01:18:00 PM 19.9349 110.4590 167° South  Level Estimated
Mon 01:19:00 PM 19.9349 110.4590 167° South  Level Estimated
Mon 01:20:00 PM 19.9349 110.4590 167° South  Level Estimated
Mon 01:21:00 PM 19.9349 110.4590 167° South  Level Estimated
Mon 01:22:00 PM 19.9349 110.4590 167° South  Level Estimated
Mon 01:23:00 PM 19.9349 110.4590 167° South  Level Estimated
Mon 01:24:00 PM 19.9349 110.4590 167° South  Level Estimated
Mon 01:25:00 PM 19.9349 110.4590 167° South  Level Estimated
Mon 01:26:00 PM 19.9349 110.4590 167° South  Level Estimated
Mon 01:27:00 PM 19.9349 110.4590 167° South  Level Estimated
Mon 01:28:00 PM 19.9349 110.4590 167° South  Level Estimated
Mon 01:29:00 PM 19.9349 110.4590 167° South  Level Estimated
Mon 01:30:00 PM 19.9349 110.4590 167° South  Level Estimated

Login

Don't have an account? Register now (free) for customized features, flight alerts, and more!